sensor_id;sensor_type;location;lat;lon;timestamp;pressure;altitude;pressure_sealevel;temperature;humidity
8294;BME280;4185;41.506;24.938;2023-05-29T00:02:05;93220.81;;;15.63;100.00
8294;BME280;4185;41.506;24.938;2023-05-29T00:04:32;93218.06;;;15.63;100.00
8294;BME280;4185;41.506;24.938;2023-05-29T00:07:00;93218.59;;;15.62;100.00
8294;BME280;4185;41.506;24.938;2023-05-29T00:09:27;93213.88;;;15.62;100.00
8294;BME280;4185;41.506;24.938;2023-05-29T00:11:55;93216.38;;;15.60;100.00
8294;BME280;4185;41.506;24.938;2023-05-29T00:14:21;93215.19;;;15.56;100.00
8294;BME280;4185;41.506;24.938;2023-05-29T00:16:49;93218.16;;;15.58;100.00
8294;BME280;4185;41.506;24.938;2023-05-29T00:19:16;93218.16;;;15.58;100.00
8294;BME280;4185;41.506;24.938;2023-05-29T00:21:44;93221.63;;;15.58;100.00
8294;BME280;4185;41.506;24.938;2023-05-29T00:24:14;93221.13;;;15.60;100.00
8294;BME280;4185;41.506;24.938;2023-05-29T00:26:42;93221.78;;;15.66;100.00
8294;BME280;4185;41.506;24.938;2023-05-29T00:29:09;93220.72;;;15.69;100.00
8294;BME280;4185;41.506;24.938;2023-05-29T00:31:36;93224.16;;;15.69;100.00
8294;BME280;4185;41.506;24.938;2023-05-29T00:34:03;93223.44;;;15.69;100.00
8294;BME280;4185;41.506;24.938;2023-05-29T00:36:29;93225.97;;;15.67;100.00
8294;BME280;4185;41.506;24.938;2023-05-29T00:38:57;93229.25;;;15.65;100.00
8294;BME280;4185;41.506;24.938;2023-05-29T00:41:25;93227.56;;;15.62;100.00
8294;BME280;4185;41.506;24.938;2023-05-29T00:43:51;93223.84;;;15.60;100.00
8294;BME280;4185;41.506;24.938;2023-05-29T00:46:18;93231.13;;;15.57;100.00
8294;BME280;4185;41.506;24.938;2023-05-29T00:48:46;93228.69;;;15.54;100.00
8294;BME280;4185;41.506;24.938;2023-05-29T00:51:14;93211.97;;;15.57;100.00
8294;BME280;4185;41.506;24.938;2023-05-29T00:53:43;93226.28;;;15.63;100.00
8294;BME280;4185;41.506;24.938;2023-05-29T00:56:11;93221.03;;;15.65;100.00
8294;BME280;4185;41.506;24.938;2023-05-29T00:58:41;93216.91;;;15.59;100.00
8294;BME280;4185;41.506;24.938;2023-05-29T01:01:08;93221.13;;;15.60;100.00
8294;BME280;4185;41.506;24.938;2023-05-29T01:03:35;93215.13;;;15.61;100.00
8294;BME280;4185;41.506;24.938;2023-05-29T01:06:03;93221.13;;;15.60;100.00
8294;BME280;4185;41.506;24.938;2023-05-29T01:08:30;93218.38;;;15.60;100.00
8294;BME280;4185;41.506;24.938;2023-05-29T01:11:01;93223.41;;;15.56;100.00
8294;BME280;4185;41.506;24.938;2023-05-29T01:13:31;93218.16;;;15.58;100.00
8294;BME280;4185;41.506;24.938;2023-05-29T01:16:08;93211.22;;;15.57;100.00
8294;BME280;4185;41.506;24.938;2023-05-29T01:18:41;93217.94;;;15.56;100.00
8294;BME280;4185;41.506;24.938;2023-05-29T01:21:23;93224.25;;;15.51;100.00
8294;BME280;4185;41.506;24.938;2023-05-29T01:24:01;93216.47;;;15.42;100.00
8294;BME280;4185;41.506;24.938;2023-05-29T01:26:55;93222.22;;;15.38;100.00
8294;BME280;4185;41.506;24.938;2023-05-29T01:29:24;93229.91;;;15.40;100.00
8294;BME280;4185;41.506;24.938;2023-05-29T01:31:52;93216.72;;;15.38;100.00
8294;BME280;4185;41.506;24.938;2023-05-29T01:34:20;93208.03;;;15.40;100.00
8294;BME280;4185;41.506;24.938;2023-05-29T01:36:46;93202.78;;;15.42;100.00
8294;BME280;4185;41.506;24.938;2023-05-29T01:39:14;93197.53;;;15.44;100.00
8294;BME280;4185;41.506;24.938;2023-05-29T01:41:43;93198.69;;;15.48;100.00
8294;BME280;4185;41.506;24.938;2023-05-29T01:44:11;93209.09;;;15.50;100.00
8294;BME280;4185;41.506;24.938;2023-05-29T01:46:39;93206.88;;;15.48;100.00
8294;BME280;4185;41.506;24.938;2023-05-29T01:49:07;93210.38;;;15.49;100.00
8294;BME280;4185;41.506;24.938;2023-05-29T01:51:35;93206.97;;;15.43;100.00
8294;BME280;4185;41.506;24.938;2023-05-29T01:54:02;93201.81;;;15.39;100.00
8294;BME280;4185;41.506;24.938;2023-05-29T01:56:30;93198.81;;;15.37;100.00
8294;BME280;4185;41.506;24.938;2023-05-29T01:59:00;93202.59;;;15.34;100.00
8294;BME280;4185;41.506;24.938;2023-05-29T02:01:28;93210.81;;;15.34;100.00
8294;BME280;4185;41.506;24.938;2023-05-29T02:03:55;93211.25;;;15.38;100.00
8294;BME280;4185;41.506;24.938;2023-05-29T02:06:21;93206.75;;;15.41;100.00
8294;BME280;4185;41.506;24.938;2023-05-29T02:08:48;93208.78;;;15.40;100.00
8294;BME280;4185;41.506;24.938;2023-05-29T02:11:15;93218.22;;;15.39;100.00
8294;BME280;4185;41.506;24.938;2023-05-29T02:13:42;93216.28;;;15.34;100.00
8294;BME280;4185;41.506;24.938;2023-05-29T02:16:10;93219.56;;;15.33;100.00
8294;BME280;4185;41.506;24.938;2023-05-29T02:18:37;93223.56;;;15.32;100.00
8294;BME280;4185;41.506;24.938;2023-05-29T02:21:04;93207.16;;;15.32;100.00
8294;BME280;4185;41.506;24.938;2023-05-29T02:23:31;93219.03;;;15.34;100.00
8294;BME280;4185;41.506;24.938;2023-05-29T02:25:57;93218.09;;;15.32;100.00
8294;BME280;4185;41.506;24.938;2023-05-29T02:28:24;93215.56;;;15.34;100.00
8294;BME280;4185;41.506;24.938;2023-05-29T02:30:51;93218.72;;;15.38;100.00
8294;BME280;4185;41.506;24.938;2023-05-29T02:33:19;93208.81;;;15.35;100.00
8294;BME280;4185;41.506;24.938;2023-05-29T02:35:46;93214.09;;;15.33;100.00
8294;BME280;4185;41.506;24.938;2023-05-29T02:38:13;93211.34;;;15.33;100.00
8294;BME280;4185;41.506;24.938;2023-05-29T02:40:40;93217.13;;;15.29;100.00
8294;BME280;4185;41.506;24.938;2023-05-29T02:43:08;93217.66;;;15.28;100.00
8294;BME280;4185;41.506;24.938;2023-05-29T02:45:35;93219.22;;;15.23;100.00
8294;BME280;4185;41.506;24.938;2023-05-29T02:48:02;93213.53;;;15.21;100.00
8294;BME280;4185;41.506;24.938;2023-05-29T02:50:30;93205.03;;;15.25;100.00
8294;BME280;4185;41.506;24.938;2023-05-29T02:52:57;93224.47;;;15.21;100.00
8294;BME280;4185;41.506;24.938;2023-05-29T02:55:24;93215.53;;;15.21;100.00
8294;BME280;4185;41.506;24.938;2023-05-29T02:57:51;93215.28;;;15.19;100.00
8294;BME280;4185;41.506;24.938;2023-05-29T03:00:20;93209.63;;;15.17;100.00
8294;BME280;4185;41.506;24.938;2023-05-29T03:02:47;93210.88;;;15.16;100.00
8294;BME280;4185;41.506;24.938;2023-05-29T03:05:14;93214.44;;;15.11;100.00
8294;BME280;4185;41.506;24.938;2023-05-29T03:07:43;93215.56;;;15.02;100.00
8294;BME280;4185;41.506;24.938;2023-05-29T03:10:10;93214.63;;;15.00;100.00
8294;BME280;4185;41.506;24.938;2023-05-29T03:12:38;93215.34;;;15.00;100.00
8294;BME280;4185;41.506;24.938;2023-05-29T03:15:07;93218.28;;;15.02;100.00
8294;BME280;4185;41.506;24.938;2023-05-29T03:17:34;93209.78;;;15.06;100.00
8294;BME280;4185;41.506;24.938;2023-05-29T03:20:02;93214.03;;;15.07;100.00
8294;BME280;4185;41.506;24.938;2023-05-29T03:22:31;93207.91;;;15.14;100.00
8294;BME280;4185;41.506;24.938;2023-05-29T03:24:59;93204.16;;;15.17;100.00
8294;BME280;4185;41.506;24.938;2023-05-29T03:27:26;93205.84;;;15.20;100.00
8294;BME280;4185;41.506;24.938;2023-05-29T03:29:52;93206.78;;;15.22;100.00
8294;BME280;4185;41.506;24.938;2023-05-29T03:32:20;93207.53;;;15.23;100.00
8294;BME280;4185;41.506;24.938;2023-05-29T03:34:46;93214.47;;;15.24;100.00
8294;BME280;4185;41.506;24.938;2023-05-29T03:37:14;93219.13;;;15.29;100.00
8294;BME280;4185;41.506;24.938;2023-05-29T03:39:40;93224.63;;;15.29;100.00
8294;BME280;4185;41.506;24.938;2023-05-29T03:42:09;93219.44;;;15.25;100.00
8294;BME280;4185;41.506;24.938;2023-05-29T03:44:35;93227.84;;;15.27;100.00
8294;BME280;4185;41.506;24.938;2023-05-29T03:47:02;93216.59;;;15.31;100.00
8294;BME280;4185;41.506;24.938;2023-05-29T03:49:29;93220.38;;;15.28;100.00
8294;BME280;4185;41.506;24.938;2023-05-29T03:51:55;93219.44;;;15.25;100.00
8294;BME280;4185;41.506;24.938;2023-05-29T03:54:22;93224.16;;;15.25;100.00
8294;BME280;4185;41.506;24.938;2023-05-29T03:56:50;93222.25;;;15.20;100.00
8294;BME280;4185;41.506;24.938;2023-05-29T03:59:18;93223.94;;;15.23;100.00
8294;BME280;4185;41.506;24.938;2023-05-29T04:01:44;93226.81;;;15.30;100.00
8294;BME280;4185;41.506;24.938;2023-05-29T04:04:11;93219.47;;;15.38;100.00
8294;BME280;4185;41.506;24.938;2023-05-29T04:06:38;93228.88;;;15.43;100.00
8294;BME280;4185;41.506;24.938;2023-05-29T04:09:05;93230.56;;;15.46;100.00
8294;BME280;4185;41.506;24.938;2023-05-29T04:11:34;93230.06;;;15.47;100.00
8294;BME280;4185;41.506;24.938;2023-05-29T04:14:00;93236.03;;;15.46;100.00
8294;BME280;4185;41.506;24.938;2023-05-29T04:16:29;93243.75;;;15.47;100.00
8294;BME280;4185;41.506;24.938;2023-05-29T04:18:56;93237.75;;;15.49;100.00
8294;BME280;4185;41.506;24.938;2023-05-29T04:21:22;93235.41;;;15.53;100.00
8294;BME280;4185;41.506;24.938;2023-05-29T04:23:49;93240.81;;;15.58;100.00
8294;BME280;4185;41.506;24.938;2023-05-29T04:26:16;93241.66;;;15.66;100.00
8294;BME280;4185;41.506;24.938;2023-05-29T04:28:43;93238.38;;;15.68;100.00
8294;BME280;4185;41.506;24.938;2023-05-29T04:31:10;93243.34;;;15.69;100.00
8294;BME280;4185;41.506;24.938;2023-05-29T04:33:40;93238.38;;;15.68;100.00
8294;BME280;4185;41.506;24.938;2023-05-29T04:36:10;93248.31;;;15.71;100.00
8294;BME280;4185;41.506;24.938;2023-05-29T04:38:37;93247.13;;;15.66;100.00
8294;BME280;4185;41.506;24.938;2023-05-29T04:41:05;93256.69;;;15.60;100.00
8294;BME280;4185;41.506;24.938;2023-05-29T04:43:33;93260.72;;;15.59;100.00
8294;BME280;4185;41.506;24.938;2023-05-29T04:46:02;93260.50;;;15.57;100.00
8294;BME280;4185;41.506;24.938;2023-05-29T04:48:29;93269.47;;;15.57;100.00
8294;BME280;4185;41.506;24.938;2023-05-29T04:50:57;93262.41;;;15.62;100.00
8294;BME280;4185;41.506;24.938;2023-05-29T04:53:24;93266.81;;;15.65;100.00
8294;BME280;4185;41.506;24.938;2023-05-29T04:55:51;93259.28;;;15.71;100.00
8294;BME280;4185;41.506;24.938;2023-05-29T04:58:18;93262.19;;;15.73;100.00
8294;BME280;4185;41.506;24.938;2023-05-29T05:00:45;93276.09;;;15.75;100.00
8294;BME280;4185;41.506;24.938;2023-05-29T05:03:13;93278.63;;;15.73;100.00
8294;BME280;4185;41.506;24.938;2023-05-29T05:05:42;93277.16;;;15.72;100.00
8294;BME280;4185;41.506;24.938;2023-05-29T05:08:10;93277.03;;;15.64;100.00
8294;BME280;4185;41.506;24.938;2023-05-29T05:10:37;93278.59;;;15.60;100.00
8294;BME280;4185;41.506;24.938;2023-05-29T05:13:04;93284.53;;;15.64;100.00
8294;BME280;4185;41.506;24.938;2023-05-29T05:15:32;93283.69;;;15.69;100.00
8294;BME280;4185;41.506;24.938;2023-05-29T05:17:59;93286.34;;;15.74;100.00
8294;BME280;4185;41.506;24.938;2023-05-29T05:20:26;93288.56;;;15.76;100.00
8294;BME280;4185;41.506;24.938;2023-05-29T05:22:52;93292.53;;;15.75;100.00
8294;BME280;4185;41.506;24.938;2023-05-29T05:25:22;93288.56;;;15.76;100.00
8294;BME280;4185;41.506;24.938;2023-05-29T05:27:49;93292.53;;;15.75;100.00
8294;BME280;4185;41.506;24.938;2023-05-29T05:30:16;93296.97;;;15.78;100.00
8294;BME280;4185;41.506;24.938;2023-05-29T05:32:43;93291.72;;;15.80;100.00
8294;BME280;4185;41.506;24.938;2023-05-29T05:35:10;93300.16;;;15.82;100.00
8294;BME280;4185;41.506;24.938;2023-05-29T05:37:37;93309.09;;;15.82;100.00
8294;BME280;4185;41.506;24.938;2023-05-29T05:40:05;93300.06;;;15.88;100.00
8294;BME280;4185;41.506;24.938;2023-05-29T05:42:33;93294.69;;;15.95;100.00
8294;BME280;4185;41.506;24.938;2023-05-29T05:45:00;93296.38;;;15.98;100.00
8294;BME280;4185;41.506;24.938;2023-05-29T05:47:28;93306.81;;;16.00;100.00
8294;BME280;4185;41.506;24.938;2023-05-29T05:49:55;93307.53;;;16.00;100.00
8294;BME280;4185;41.506;24.938;2023-05-29T05:52:23;93299.53;;;16.02;100.00
8294;BME280;4185;41.506;24.938;2023-05-29T05:54:50;93311.56;;;16.12;100.00
8294;BME280;4185;41.506;24.938;2023-05-29T05:57:16;93308.94;;;16.20;100.00
8294;BME280;4185;41.506;24.938;2023-05-29T05:59:44;93316.03;;;16.28;100.00
8294;BME280;4185;41.506;24.938;2023-05-29T06:02:11;93310.94;;;16.32;100.00
8294;BME280;4185;41.506;24.938;2023-05-29T06:04:38;93313.69;;;16.45;100.00
8294;BME280;4185;41.506;24.938;2023-05-29T06:07:05;93320.06;;;16.53;100.00
8294;BME280;4185;41.506;24.938;2023-05-29T06:09:32;93327.75;;;16.55;100.00
8294;BME280;4185;41.506;24.938;2023-05-29T06:11:59;93320.66;;;16.59;100.00
8294;BME280;4185;41.506;24.938;2023-05-29T06:14:27;93316.22;;;16.69;98.49
8294;BME280;4185;41.506;24.938;2023-05-29T06:16:55;93313.91;;;16.73;99.67
8294;BME280;4185;41.506;24.938;2023-05-29T06:19:22;93313.06;;;16.78;97.43
8294;BME280;4185;41.506;24.938;2023-05-29T06:21:49;93309.66;;;16.98;97.22
8294;BME280;4185;41.506;24.938;2023-05-29T06:24:15;93312.03;;;17.15;93.75
8294;BME280;4185;41.506;24.938;2023-05-29T06:26:42;93321.91;;;17.31;89.25
8294;BME280;4185;41.506;24.938;2023-05-29T06:29:09;93318.72;;;17.40;89.00
8294;BME280;4185;41.506;24.938;2023-05-29T06:31:36;93318.06;;;17.47;88.34
8294;BME280;4185;41.506;24.938;2023-05-29T06:34:04;93315.00;;;17.51;87.56
8294;BME280;4185;41.506;24.938;2023-05-29T06:36:31;93309.75;;;17.40;88.70
8294;BME280;4185;41.506;24.938;2023-05-29T06:38:58;93314.50;;;17.39;89.77
8294;BME280;4185;41.506;24.938;2023-05-29T06:41:25;93307.31;;;17.36;90.13
8294;BME280;4185;41.506;24.938;2023-05-29T06:43:52;93313.06;;;17.25;88.80
8294;BME280;4185;41.506;24.938;2023-05-29T06:46:19;93310.88;;;17.11;90.04
8294;BME280;4185;41.506;24.938;2023-05-29T06:48:45;93306.59;;;17.02;89.44
8294;BME280;4185;41.506;24.938;2023-05-29T06:51:15;93317.97;;;17.06;92.31
8294;BME280;4185;41.506;24.938;2023-05-29T06:53:42;93319.66;;;17.09;92.73
8294;BME280;4185;41.506;24.938;2023-05-29T06:56:09;93311.53;;;17.03;90.67
8294;BME280;4185;41.506;24.938;2023-05-29T06:58:36;93319.69;;;16.96;90.57
8294;BME280;4185;41.506;24.938;2023-05-29T07:01:03;93316.19;;;16.95;90.71
8294;BME280;4185;41.506;24.938;2023-05-29T07:03:30;93320.22;;;16.94;90.11
8294;BME280;4185;41.506;24.938;2023-05-29T07:05:57;93323.69;;;16.95;92.00
8294;BME280;4185;41.506;24.938;2023-05-29T07:08:27;93328.25;;;16.92;89.75
8294;BME280;4185;41.506;24.938;2023-05-29T07:10:53;93329.31;;;16.89;90.21
8294;BME280;4185;41.506;24.938;2023-05-29T07:13:20;93328.78;;;16.91;91.70
8294;BME280;4185;41.506;24.938;2023-05-29T07:15:48;93329.06;;;17.00;92.41
8294;BME280;4185;41.506;24.938;2023-05-29T07:18:14;93325.03;;;17.15;91.57
8294;BME280;4185;41.506;24.938;2023-05-29T07:20:41;93324.09;;;17.46;89.31
8294;BME280;4185;41.506;24.938;2023-05-29T07:23:08;93320.50;;;17.51;87.31
8294;BME280;4185;41.506;24.938;2023-05-29T07:25:37;93326.41;;;17.55;87.52
8294;BME280;4185;41.506;24.938;2023-05-29T07:28:03;93328.72;;;17.51;85.40
8294;BME280;4185;41.506;24.938;2023-05-29T07:30:30;93328.69;;;17.64;86.09
8294;BME280;4185;41.506;24.938;2023-05-29T07:32:58;93328.00;;;17.71;84.28
8294;BME280;4185;41.506;24.938;2023-05-29T07:35:25;93325.88;;;17.77;83.88
8294;BME280;4185;41.506;24.938;2023-05-29T07:37:52;93332.50;;;17.81;84.02
8294;BME280;4185;41.506;24.938;2023-05-29T07:40:19;93330.91;;;17.86;82.27
8294;BME280;4185;41.506;24.938;2023-05-29T07:42:47;93330.09;;;17.98;81.58
8294;BME280;4185;41.506;24.938;2023-05-29T07:45:14;93326.34;;;18.37;79.91
8294;BME280;4185;41.506;24.938;2023-05-29T07:47:41;93332.78;;;18.60;80.31
8294;BME280;4185;41.506;24.938;2023-05-29T07:50:08;93319.91;;;18.55;78.22
8294;BME280;4185;41.506;24.938;2023-05-29T07:52:36;93334.50;;;18.43;77.29
8294;BME280;4185;41.506;24.938;2023-05-29T07:55:03;93339.31;;;18.29;77.15
8294;BME280;4185;41.506;24.938;2023-05-29T07:57:30;93329.19;;;18.24;77.17
8294;BME280;4185;41.506;24.938;2023-05-29T07:59:58;93335.34;;;18.38;76.84
8294;BME280;4185;41.506;24.938;2023-05-29T08:02:25;93324.69;;;18.62;76.39
8294;BME280;4185;41.506;24.938;2023-05-29T08:04:52;93321.84;;;18.75;76.91
8294;BME280;4185;41.506;24.938;2023-05-29T08:07:18;93325.25;;;18.96;76.80
8294;BME280;4185;41.506;24.938;2023-05-29T08:09:45;93321.38;;;18.92;77.05
8294;BME280;4185;41.506;24.938;2023-05-29T08:12:12;93322.91;;;18.72;75.80
8294;BME280;4185;41.506;24.938;2023-05-29T08:14:39;93324.91;;;18.64;75.98
8294;BME280;4185;41.506;24.938;2023-05-29T08:17:07;93320.16;;;18.72;75.62
8294;BME280;4185;41.506;24.938;2023-05-29T08:19:34;93322.97;;;18.80;76.29
8294;BME280;4185;41.506;24.938;2023-05-29T08:22:01;93313.47;;;18.88;75.54
8294;BME280;4185;41.506;24.938;2023-05-29T08:24:27;93322.56;;;19.11;76.17
8294;BME280;4185;41.506;24.938;2023-05-29T08:26:54;93316.72;;;19.22;74.71
8294;BME280;4185;41.506;24.938;2023-05-29T08:29:21;93318.66;;;19.50;73.37
8294;BME280;4185;41.506;24.938;2023-05-29T08:31:48;93313.22;;;19.73;71.23
8294;BME280;4185;41.506;24.938;2023-05-29T08:34:16;93312.28;;;19.63;69.88
8294;BME280;4185;41.506;24.938;2023-05-29T08:36:43;93313.16;;;19.42;70.79
8294;BME280;4185;41.506;24.938;2023-05-29T08:39:10;93301.19;;;19.32;69.97
8294;BME280;4185;41.506;24.938;2023-05-29T08:41:49;93303.22;;;19.39;69.38
8294;BME280;4185;41.506;24.938;2023-05-29T08:44:22;93308.56;;;19.45;67.27
8294;BME280;4185;41.506;24.938;2023-05-29T08:46:53;93305.44;;;19.49;67.32
8294;BME280;4185;41.506;24.938;2023-05-29T08:49:23;93297.59;;;19.68;67.87
8294;BME280;4185;41.506;24.938;2023-05-29T08:51:57;93295.78;;;20.00;64.50
8294;BME280;4185;41.506;24.938;2023-05-29T08:54:31;93302.38;;;20.05;64.31
8294;BME280;4185;41.506;24.938;2023-05-29T08:56:59;93302.06;;;20.16;61.71
8294;BME280;4185;41.506;24.938;2023-05-29T08:59:27;93297.06;;;20.07;64.02
8294;BME280;4185;41.506;24.938;2023-05-29T09:01:56;93298.72;;;20.02;65.45
8294;BME280;4185;41.506;24.938;2023-05-29T09:04:24;93289.31;;;19.83;63.65
8294;BME280;4185;41.506;24.938;2023-05-29T09:06:51;93299.22;;;19.71;63.30
8294;BME280;4185;41.506;24.938;2023-05-29T09:09:20;93302.00;;;19.78;64.35
8294;BME280;4185;41.506;24.938;2023-05-29T09:11:49;93301.63;;;19.74;62.70
8294;BME280;4185;41.506;24.938;2023-05-29T09:14:34;93300.88;;;19.74;62.98
8294;BME280;4185;41.506;24.938;2023-05-29T09:17:01;93290.63;;;19.82;62.22
8294;BME280;4185;41.506;24.938;2023-05-29T09:19:30;93300.19;;;19.88;62.61
8294;BME280;4185;41.506;24.938;2023-05-29T09:22:01;93292.28;;;20.15;63.20
8294;BME280;4185;41.506;24.938;2023-05-29T09:26:56;93286.56;;;20.50;62.74
8294;BME280;4185;41.506;24.938;2023-05-29T09:29:25;93294.34;;;20.29;62.00
8294;BME280;4185;41.506;24.938;2023-05-29T09:31:51;93287.31;;;20.13;61.23
8294;BME280;4185;41.506;24.938;2023-05-29T09:34:18;93291.34;;;20.05;62.35
8294;BME280;4185;41.506;24.938;2023-05-29T09:36:46;93295.41;;;19.96;64.26
8294;BME280;4185;41.506;24.938;2023-05-29T09:39:13;93293.56;;;19.91;64.71
8294;BME280;4185;41.506;24.938;2023-05-29T09:41:42;93289.91;;;19.89;63.54
8294;BME280;4185;41.506;24.938;2023-05-29T09:44:12;93289.88;;;19.81;61.97
8294;BME280;4185;41.506;24.938;2023-05-29T09:46:39;93292.09;;;19.75;60.39
8294;BME280;4185;41.506;24.938;2023-05-29T09:49:10;93287.31;;;19.83;60.92
8294;BME280;4185;41.506;24.938;2023-05-29T09:51:37;93280.16;;;19.88;61.54
8294;BME280;4185;41.506;24.938;2023-05-29T09:54:16;93274.09;;;19.97;60.63
8294;BME280;4185;41.506;24.938;2023-05-29T09:56:43;93271.31;;;20.12;60.09
8294;BME280;4185;41.506;24.938;2023-05-29T09:59:11;93272.97;;;20.15;61.48
8294;BME280;4185;41.506;24.938;2023-05-29T10:01:40;93270.38;;;20.09;60.44
8294;BME280;4185;41.506;24.938;2023-05-29T10:04:08;93271.88;;;20.03;59.96
8294;BME280;4185;41.506;24.938;2023-05-29T10:06:36;93269.66;;;20.01;61.94
8294;BME280;4185;41.506;24.938;2023-05-29T10:09:05;93270.78;;;19.98;60.45
8294;BME280;4185;41.506;24.938;2023-05-29T10:11:37;93262.69;;;20.08;60.94
8294;BME280;4185;41.506;24.938;2023-05-29T10:14:05;93268.19;;;20.23;60.22
8294;BME280;4185;41.506;24.938;2023-05-29T10:16:34;93267.13;;;20.26;59.93
8294;BME280;4185;41.506;24.938;2023-05-29T10:19:06;93257.91;;;20.23;58.50
8294;BME280;4185;41.506;24.938;2023-05-29T10:21:37;93264.53;;;20.20;58.20
8294;BME280;4185;41.506;24.938;2023-05-29T10:24:07;93264.00;;;20.22;57.38
8294;BME280;4185;41.506;24.938;2023-05-29T10:26:35;93259.75;;;20.28;57.11
8294;BME280;4185;41.506;24.938;2023-05-29T10:29:09;93260.47;;;20.44;58.41
8294;BME280;4185;41.506;24.938;2023-05-29T10:31:46;93254.91;;;20.59;59.13
8294;BME280;4185;41.506;24.938;2023-05-29T10:34:23;93258.38;;;20.67;57.86
8294;BME280;4185;41.506;24.938;2023-05-29T10:37:02;93249.75;;;20.63;55.36
8294;BME280;4185;41.506;24.938;2023-05-29T10:39:31;93254.84;;;20.74;56.23
8294;BME280;4185;41.506;24.938;2023-05-29T10:41:59;93244.88;;;20.86;56.69
8294;BME280;4185;41.506;24.938;2023-05-29T10:44:39;93255.34;;;20.95;57.04
8294;BME280;4185;41.506;24.938;2023-05-29T10:47:07;93247.81;;;20.88;55.31
8294;BME280;4185;41.506;24.938;2023-05-29T10:49:36;93255.16;;;20.93;55.71
8294;BME280;4185;41.506;24.938;2023-05-29T10:52:04;93251.50;;;20.98;54.91
8294;BME280;4185;41.506;24.938;2023-05-29T10:54:41;93241.19;;;20.91;55.49
8294;BME280;4185;41.506;24.938;2023-05-29T10:57:17;93238.47;;;21.23;54.97
8294;BME280;4185;41.506;24.938;2023-05-29T10:59:46;93242.91;;;21.51;54.41
8294;BME280;4185;41.506;24.938;2023-05-29T11:02:17;93246.66;;;21.70;54.70
8294;BME280;4185;41.506;24.938;2023-05-29T11:04:44;93235.09;;;21.89;57.00
8294;BME280;4185;41.506;24.938;2023-05-29T11:07:33;93244.06;;;22.22;57.29
8294;BME280;4185;41.506;24.938;2023-05-29T11:10:11;93241.31;;;21.97;53.01
8294;BME280;4185;41.506;24.938;2023-05-29T11:12:55;93245.78;;;21.93;53.25
8294;BME280;4185;41.506;24.938;2023-05-29T11:15:24;93240.97;;;21.93;54.98
8294;BME280;4185;41.506;24.938;2023-05-29T11:17:52;93242.16;;;21.83;54.10
8294;BME280;4185;41.506;24.938;2023-05-29T11:20:28;93236.16;;;21.94;55.13
8294;BME280;4185;41.506;24.938;2023-05-29T11:23:04;93241.06;;;22.03;53.27
8294;BME280;4185;41.506;24.938;2023-05-29T11:25:35;93232.38;;;22.06;53.38
8294;BME280;4185;41.506;24.938;2023-05-29T11:28:03;93235.16;;;22.06;52.57
8294;BME280;4185;41.506;24.938;2023-05-29T11:30:45;93239.69;;;21.94;52.62
8294;BME280;4185;41.506;24.938;2023-05-29T11:33:20;93237.47;;;21.93;54.95
8294;BME280;4185;41.506;24.938;2023-05-29T11:35:54;93234.72;;;21.93;54.64
8294;BME280;4185;41.506;24.938;2023-05-29T11:38:23;93239.97;;;21.81;55.25
8294;BME280;4185;41.506;24.938;2023-05-29T11:40:49;93239.97;;;21.81;55.02
8294;BME280;4185;41.506;24.938;2023-05-29T11:43:16;93239.31;;;21.65;55.43
8294;BME280;4185;41.506;24.938;2023-05-29T11:45:44;93237.72;;;21.55;56.66
8294;BME280;4185;41.506;24.938;2023-05-29T11:48:12;93244.16;;;21.57;56.36
8294;BME280;4185;41.506;24.938;2023-05-29T11:50:38;93239.75;;;21.54;56.01
8294;BME280;4185;41.506;24.938;2023-05-29T11:53:06;93243.63;;;21.51;55.81
8294;BME280;4185;41.506;24.938;2023-05-29T11:55:33;93246.41;;;21.51;57.47
8294;BME280;4185;41.506;24.938;2023-05-29T11:58:01;93247.97;;;21.37;58.52
8294;BME280;4185;41.506;24.938;2023-05-29T12:00:31;93253.59;;;21.22;59.91
8294;BME280;4185;41.506;24.938;2023-05-29T12:03:00;93247.03;;;21.03;60.00
8294;BME280;4185;41.506;24.938;2023-05-29T12:05:29;93244.69;;;20.92;61.75
8294;BME280;4185;41.506;24.938;2023-05-29T12:07:57;93241.19;;;20.84;61.15
8294;BME280;4185;41.506;24.938;2023-05-29T12:10:27;93241.06;;;20.74;61.46
8294;BME280;4185;41.506;24.938;2023-05-29T12:12:55;93235.91;;;20.71;61.87
8294;BME280;4185;41.506;24.938;2023-05-29T12:15:22;93231.38;;;20.58;62.64
8294;BME280;4185;41.506;24.938;2023-05-29T12:17:51;93239.09;;;20.59;64.00
8294;BME280;4185;41.506;24.938;2023-05-29T12:20:22;93230.63;;;20.50;66.07
8294;BME280;4185;41.506;24.938;2023-05-29T12:22:51;93233.25;;;20.33;66.93
8294;BME280;4185;41.506;24.938;2023-05-29T12:25:20;93228.50;;;20.18;67.27
8294;BME280;4185;41.506;24.938;2023-05-29T12:27:47;93235.47;;;20.04;68.30
8294;BME280;4185;41.506;24.938;2023-05-29T12:30:20;93227.94;;;20.05;68.19
8294;BME280;4185;41.506;24.938;2023-05-29T12:32:49;93242.84;;;20.02;68.51
8294;BME280;4185;41.506;24.938;2023-05-29T12:35:19;93246.34;;;20.02;68.73
8294;BME280;4185;41.506;24.938;2023-05-29T12:37:48;93237.31;;;20.09;68.14
8294;BME280;4185;41.506;24.938;2023-05-29T12:40:20;93271.88;;;20.25;66.75
8294;BME280;4185;41.506;24.938;2023-05-29T12:42:48;93280.72;;;20.16;65.80
8294;BME280;4185;41.506;24.938;2023-05-29T12:45:17;93284.53;;;19.91;65.05
8294;BME280;4185;41.506;24.938;2023-05-29T12:47:45;93281.97;;;20.08;64.60
8294;BME280;4185;41.506;24.938;2023-05-29T12:50:21;93296.13;;;19.82;65.07
8294;BME280;4185;41.506;24.938;2023-05-29T12:52:56;93297.19;;;19.49;67.20
8294;BME280;4185;41.506;24.938;2023-05-29T12:55:23;93292.66;;;19.15;71.52
8294;BME280;4185;41.506;24.938;2023-05-29T12:57:50;93298.25;;;18.95;72.80
8294;BME280;4185;41.506;24.938;2023-05-29T13:00:19;93299.56;;;18.58;74.73
8294;BME280;4185;41.506;24.938;2023-05-29T13:02:46;93296.78;;;18.30;75.30
8294;BME280;4185;41.506;24.938;2023-05-29T13:05:14;93285.44;;;18.05;75.47
8294;BME280;4185;41.506;24.938;2023-05-29T13:07:43;93294.03;;;18.02;77.51
8294;BME280;4185;41.506;24.938;2023-05-29T13:10:10;93294.69;;;17.95;78.97
8294;BME280;4185;41.506;24.938;2023-05-29T13:12:36;93299.84;;;18.19;78.66
8294;BME280;4185;41.506;24.938;2023-05-29T13:15:04;93292.00;;;18.51;77.01